Time;durP1;ratioP1;P1;durP2;ratioP2;P2;SDS_P1;SDS_P2;PMS_P1;PMS_P2;Temp;Humidity;BMP_temperature;BMP_pressure;BME280_temperature;BME280_humidity;BME280_pressure;Samples;Min_cycle;Max_cycle;Signal;HPM_P1;HPM_P2
2022/05/22 00:02:21;;;;;;;6.47;1.77;;;;;;;20.66;38.64;99753.53;4430298;32;32052;-87
2022/05/22 00:04:54;;;;;;;4.28;1.60;;;;;;;20.53;38.95;99753.22;4443397;32;32457;-86
2022/05/22 00:07:22;;;;;;;3.60;1.80;;;;;;;20.49;38.88;99752.91;4430091;32;34012;-86
2022/05/22 00:09:50;;;;;;;2.33;1.40;;;;;;;20.29;39.17;99747.22;4443397;32;34793;-85
2022/05/22 00:12:18;;;;;;;2.70;1.35;;;;;;;20.35;38.95;99748.91;4430137;32;32043;-86
2022/05/22 00:14:47;;;;;;;3.75;1.50;;;;;;;20.41;38.80;99738.66;4442638;32;32896;-86
2022/05/22 00:17:18;;;;;;;5.12;1.70;;;;;;;20.22;39.21;99743.81;4443424;32;33558;-86
2022/05/22 00:19:45;;;;;;;3.33;1.65;;;;;;;20.16;39.28;99739.34;4442567;32;34588;-85
2022/05/22 00:22:13;;;;;;;4.78;1.50;;;;;;;20.17;39.40;99741.00;4429726;32;33099;-86
2022/05/22 00:24:42;;;;;;;3.20;1.50;;;;;;;20.22;39.23;99727.94;4442975;32;33375;-86
2022/05/22 00:27:10;;;;;;;3.60;1.58;;;;;;;20.16;39.32;99729.03;4429201;32;34828;-86
2022/05/22 00:29:38;;;;;;;3.97;1.52;;;;;;;20.04;39.60;99726.47;4442408;32;34856;-87
2022/05/22 00:32:08;;;;;;;3.58;1.48;;;;;;;19.91;40.07;99731.69;4455175;32;34197;-86
2022/05/22 00:34:37;;;;;;;3.33;1.60;;;;;;;20.09;39.97;99722.06;4442858;32;34214;-86
2022/05/22 00:37:06;;;;;;;2.85;1.40;;;;;;;19.94;40.22;99722.78;4442058;32;33705;-87
2022/05/22 00:39:37;;;;;;;3.20;1.50;;;;;;;19.94;40.11;99726.41;4429936;32;32441;-87
2022/05/22 00:42:18;;;;;;;3.62;1.70;;;;;;;19.96;39.93;99717.78;4443156;32;33563;-86
2022/05/22 00:44:48;;;;;;;5.72;2.45;;;;;;;20.04;39.64;99722.84;4442579;32;34511;-86
2022/05/22 00:47:16;;;;;;;2.92;1.60;;;;;;;20.04;39.67;99726.47;4442612;32;34445;-86
2022/05/22 00:49:46;;;;;;;3.53;1.60;;;;;;;20.00;39.90;99732.88;4442256;32;33020;-86
2022/05/22 00:52:45;;;;;;;4.78;1.70;;;;;;;19.86;40.26;99726.09;4443145;32;32632;-86
2022/05/22 00:55:16;;;;;;;3.55;1.60;;;;;;;19.85;40.35;99728.03;4436097;32;32215;-86
2022/05/22 00:57:52;;;;;;;4.75;1.75;;;;;;;19.85;40.25;99728.03;4429810;32;33079;-86
2022/05/22 01:00:22;;;;;;;4.60;1.67;;;;;;;19.82;40.29;99725.78;4429825;32;32073;-85
2022/05/22 01:05:43;;;;;;;3.75;1.65;;;;;;;19.76;40.50;99737.16;4444256;32;32198;-87
2022/05/22 01:08:12;;;;;;;4.87;1.83;;;;;;;19.90;40.10;99724.44;4442871;32;35248;-86
2022/05/22 01:10:43;;;;;;;4.43;1.80;;;;;;;19.80;40.32;99724.38;4442787;32;33786;-87
2022/05/22 01:13:12;;;;;;;4.50;1.70;;;;;;;19.64;40.67;99717.84;4442465;32;33122;-86
2022/05/22 01:15:43;;;;;;;4.43;1.77;;;;;;;19.62;40.72;99722.84;4442669;32;34636;-86
2022/05/22 01:18:12;;;;;;;5.40;1.80;;;;;;;19.38;41.44;99717.66;4443025;32;35131;-86
2022/05/22 01:20:48;;;;;;;3.35;1.70;;;;;;;19.59;41.18;99715.03;4429581;32;32721;-86
2022/05/22 01:23:22;;;;;;;3.50;1.77;;;;;;;19.68;40.65;99727.34;4429822;32;31336;-86
2022/05/22 01:25:52;;;;;;;4.53;1.83;;;;;;;19.71;40.43;99721.25;4455448;32;34480;-86
2022/05/22 01:28:22;;;;;;;3.20;1.50;;;;;;;19.63;40.64;99722.59;4442930;32;34167;-86
2022/05/22 01:30:53;;;;;;;3.85;1.73;;;;;;;19.51;41.19;99715.50;4429751;32;33873;-86
2022/05/22 01:33:25;;;;;;;3.28;1.40;;;;;;;19.54;40.87;99723.34;4442571;32;31954;-86
2022/05/22 01:35:55;;;;;;;5.05;1.60;;;;;;;19.70;40.51;99714.00;4430251;32;32865;-86
2022/05/22 01:38:27;;;;;;;4.50;1.52;;;;;;;19.45;41.14;99722.16;4442292;32;33939;-86
2022/05/22 01:40:56;;;;;;;3.30;1.58;;;;;;;19.55;40.74;99717.50;4429775;32;32548;-84
2022/05/22 01:43:29;;;;;;;2.95;1.60;;;;;;;19.58;40.67;99718.94;4430213;32;33793;-84
2022/05/22 01:46:01;;;;;;;3.20;1.52;;;;;;;19.55;40.83;99720.31;4442666;32;33766;-83
2022/05/22 01:48:32;;;;;;;3.45;1.70;;;;;;;19.64;40.64;99715.06;4455086;32;34536;-83
2022/05/22 01:50:59;;;;;;;6.10;1.62;;;;;;;19.55;40.76;99716.69;4442017;32;34834;-84
2022/05/22 01:53:34;;;;;;;4.22;1.77;;;;;;;19.67;40.48;99720.09;4442263;32;33416;-83
2022/05/22 01:56:04;;;;;;;4.62;1.60;;;;;;;19.62;40.68;99708.94;4454837;32;33517;-83
2022/05/22 01:58:32;;;;;;;3.42;1.40;;;;;;;19.65;40.47;99717.59;4444462;32;33014;-83
2022/05/22 02:01:01;;;;;;;3.20;1.40;;;;;;;19.68;40.23;99711.50;4431188;32;32527;-84
2022/05/22 02:03:32;;;;;;;4.07;1.42;;;;;;;19.67;40.05;99714.53;4444041;32;32931;-83
2022/05/22 02:06:00;;;;;;;3.62;1.50;;;;;;;19.60;40.12;99717.56;4443942;32;32656;-84
2022/05/22 02:08:29;;;;;;;2.10;1.23;;;;;;;19.56;40.12;99710.84;4444016;32;33835;-83
2022/05/22 02:11:03;;;;;;;3.15;1.45;;;;;;;19.68;39.85;99707.88;4443995;32;32452;-84
2022/05/22 02:13:49;;;;;;;4.53;1.60;;;;;;;19.69;39.62;99710.38;4444232;32;33625;-83
2022/05/22 02:16:22;;;;;;;;;;;;;;;19.73;39.45;99705.13;4444485;32;33887;-83
2022/05/22 02:18:51;;;;;;;3.70;1.50;;;;;;;19.64;39.60;99706.72;4444252;32;34624;-84
2022/05/22 02:21:22;;;;;;;2.67;1.50;;;;;;;19.75;39.38;99705.69;4443986;32;33325;-83
2022/05/22 02:23:51;;;;;;;6.93;1.50;;;;;;;19.70;39.43;99703.72;4443986;32;33462;-83
2022/05/22 02:26:20;;;;;;;4.87;1.60;;;;;;;19.61;39.60;99701.69;4444326;32;33729;-83
2022/05/22 02:28:48;;;;;;;4.53;1.73;;;;;;;19.56;39.78;99699.72;4443864;32;35130;-83
2022/05/22 02:31:15;;;;;;;2.87;1.80;;;;;;;19.55;39.86;99702.75;4430673;32;32621;-83
2022/05/22 02:33:44;;;;;;;5.68;1.48;;;;;;;19.58;39.96;99707.78;4431178;32;32190;-83
2022/05/22 02:36:14;;;;;;;2.75;1.42;;;;;;;19.52;40.19;99706.06;4444295;32;33760;-84
2022/05/22 02:38:49;;;;;;;3.83;1.75;;;;;;;19.60;40.11;99709.19;4431848;32;33796;-83
2022/05/22 02:41:18;;;;;;;5.85;1.65;;;;;;;19.52;40.39;99715.25;4456908;32;34909;-83
2022/05/22 02:43:46;;;;;;;3.42;1.62;;;;;;;19.42;40.78;99717.97;4431521;32;32752;-83
2022/05/22 02:46:18;;;;;;;5.12;1.67;;;;;;;19.38;40.89;99709.31;4431752;32;33206;-83
2022/05/22 02:48:49;;;;;;;4.30;1.83;;;;;;;19.32;41.04;99707.59;4456716;32;35436;-83
2022/05/22 02:51:20;;;;;;;2.05;1.30;;;;;;;19.30;41.13;99709.81;4444020;32;33997;-83
2022/05/22 02:53:51;;;;;;;3.83;1.60;;;;;;;19.34;41.06;99710.94;4443769;32;31869;-84
2022/05/22 02:56:22;;;;;;;3.47;1.70;;;;;;;19.37;40.91;99715.12;4443743;32;32757;-84
2022/05/22 02:58:52;;;;;;;3.62;1.52;;;;;;;19.18;41.42;99720.25;4444125;32;34237;-83
2022/05/22 03:01:21;;;;;;;3.08;1.23;;;;;;;19.09;41.45;99713.50;4443824;32;34219;-82
2022/05/22 03:03:50;;;;;;;5.12;1.35;;;;;;;18.74;41.32;99717.63;4430960;32;32865;-83
2022/05/22 03:09:11;;;;;;;3.42;1.40;;;;;;;18.36;41.66;99726.03;4445569;32;32862;-84
2022/05/22 03:11:40;;;;;;;2.62;1.23;;;;;;;18.15;41.68;99724.13;4456950;32;33906;-84
2022/05/22 03:14:11;;;;;;;2.62;1.23;;;;;;;18.21;41.81;99717.50;4456104;32;33731;-84
2022/05/22 03:16:41;;;;;;;4.30;1.60;;;;;;;18.28;41.27;99721.78;4443968;32;34556;-84
2022/05/22 03:19:10;;;;;;;2.72;1.40;;;;;;;18.57;40.49;99722.41;4456789;32;33353;-83
2022/05/22 03:21:41;;;;;;;5.15;1.52;;;;;;;18.69;40.29;99714.78;4430697;32;32582;-84
2022/05/22 03:24:09;;;;;;;3.67;1.58;;;;;;;18.39;41.07;99722.75;4460764;32;33437;-84
2022/05/22 03:26:39;;;;;;;4.05;1.52;;;;;;;18.33;40.97;99716.28;4434982;32;33264;-84
2022/05/22 03:29:07;;;;;;;3.12;1.50;;;;;;;18.54;40.46;99719.31;4447471;32;34503;-84
2022/05/22 03:31:35;;;;;;;4.47;1.50;;;;;;;18.61;40.43;99711.63;4446011;32;32454;-84
2022/05/22 03:34:04;;;;;;;3.08;1.30;;;;;;;18.74;40.13;99717.63;4431201;32;31449;-83
2022/05/22 03:36:38;;;;;;;3.17;1.30;;;;;;;18.73;39.95;99715.94;4430913;32;32363;-83
2022/05/22 03:39:07;;;;;;;2.55;1.15;;;;;;;18.96;39.62;99725.06;4444512;32;34016;-84
2022/05/22 03:41:36;;;;;;;3.67;1.48;;;;;;;19.00;39.60;99721.47;4431058;32;33328;-84
2022/05/22 03:44:05;;;;;;;4.22;1.48;;;;;;;18.85;39.92;99731.66;4431303;32;32879;-84
2022/05/22 03:46:37;;;;;;;3.35;1.50;;;;;;;18.82;39.89;99732.16;4444249;32;32323;-84
2022/05/22 03:49:06;;;;;;;3.05;1.55;;;;;;;18.64;40.50;99734.19;4443550;32;32414;-90
2022/05/22 03:51:37;;;;;;;2.85;1.30;;;;;;;18.90;40.63;99738.06;4430962;32;32614;-88
2022/05/22 03:54:08;;;;;;;4.55;1.55;;;;;;;19.00;40.81;99740.13;4443945;32;34257;-90
2022/05/22 03:56:39;;;;;;;6.15;1.67;;;;;;;18.70;40.49;99744.28;4444065;32;33373;-87
2022/05/22 03:59:13;;;;;;;4.03;1.55;;;;;;;18.85;40.32;99737.19;4456888;32;35234;-81
2022/05/22 04:01:42;;;;;;;4.30;1.62;;;;;;;18.85;40.59;99748.31;4443812;32;34594;-81
2022/05/22 04:04:10;;;;;;;5.62;1.77;;;;;;;18.77;40.56;99746.84;4443384;32;32986;-81
2022/05/22 04:06:39;;;;;;;2.55;1.30;;;;;;;19.01;40.20;99750.13;4430797;32;32599;-81
2022/05/22 04:09:09;;;;;;;4.80;1.50;;;;;;;19.21;39.81;99750.34;4431220;32;33001;-81
2022/05/22 04:11:41;;;;;;;3.30;1.48;;;;;;;19.27;39.83;99745.66;4430983;32;32667;-81
2022/05/22 04:14:10;;;;;;;4.05;1.52;;;;;;;19.47;39.20;99747.78;4430824;32;31948;-81
2022/05/22 04:16:40;;;;;;;3.55;1.70;;;;;;;19.03;40.26;99759.06;4430922;32;33519;-80
2022/05/22 04:19:08;;;;;;;3.67;1.62;;;;;;;18.86;40.56;99748.03;4429895;32;34700;-81
2022/05/22 04:21:36;;;;;;;3.60;1.20;;;;;;;19.00;40.48;99754.84;4439850;32;32560;-80
2022/05/22 04:26:54;;;;;;;2.92;1.45;;;;;;;18.88;40.90;99756.13;4453099;32;32175;-81
2022/05/22 04:29:28;;;;;;;3.53;1.55;;;;;;;18.81;41.21;99759.13;4441144;32;34318;-81
2022/05/22 04:31:56;;;;;;;5.70;1.50;;;;;;;19.00;40.78;99757.63;4415004;32;34523;-81
2022/05/22 04:34:26;;;;;;;3.12;1.52;;;;;;;18.78;40.98;99759.66;4440696;32;32988;-81
2022/05/22 04:37:01;;;;;;;4.50;1.65;;;;;;;18.53;41.57;99771.28;4441076;32;33823;-81
2022/05/22 04:39:29;;;;;;;3.85;1.50;;;;;;;18.67;41.61;99758.69;4440317;32;34388;-81
2022/05/22 04:42:02;;;;;;;2.30;1.50;;;;;;;18.80;41.49;99759.38;4427973;32;32618;-81
2022/05/22 04:44:30;;;;;;;3.40;1.60;;;;;;;18.98;41.07;99761.78;4440668;32;34309;-80
2022/05/22 04:47:02;;;;;;;4.85;1.92;;;;;;;18.96;41.12;99758.44;4427909;32;32726;-84
2022/05/22 04:49:35;;;;;;;4.53;1.80;;;;;;;19.22;40.70;99762.31;4439982;32;35293;-83
2022/05/22 04:52:04;;;;;;;4.12;1.73;;;;;;;19.17;40.87;99759.47;4422901;32;34046;-83
2022/05/22 04:54:32;;;;;;;3.40;1.50;;;;;;;18.95;41.65;99763.16;4406281;32;32159;-82
2022/05/22 04:57:02;;;;;;;5.10;1.80;;;;;;;18.91;41.51;99769.50;4423016;32;33844;-83
2022/05/22 04:59:31;;;;;;;3.58;1.58;;;;;;;19.00;41.59;99763.22;4408346;32;32546;-83
2022/05/22 05:01:59;;;;;;;3.62;1.73;;;;;;;19.22;41.26;99765.94;4414654;32;32449;-83
2022/05/22 05:04:29;;;;;;;3.30;1.50;;;;;;;19.12;41.11;99765.84;4413405;32;32140;-82
2022/05/22 05:06:58;;;;;;;6.15;2.30;;;;;;;18.67;42.18;99758.69;4414727;32;33176;-83
2022/05/22 05:09:31;;;;;;;4.12;1.80;;;;;;;19.09;41.61;99760.78;4414621;32;32636;-84
2022/05/22 05:12:01;;;;;;;4.55;2.62;;;;;;;19.34;41.52;99749.91;4427135;32;32798;-82
2022/05/22 05:14:36;;;;;;;5.95;2.00;;;;;;;19.13;41.33;99750.81;4414735;32;32015;-89
2022/05/22 05:17:10;;;;;;;3.70;1.83;;;;;;;19.31;41.61;99753.22;4427189;32;34007;-82
2022/05/22 05:19:38;;;;;;;5.37;1.73;;;;;;;19.05;41.64;99762.41;4427268;32;34858;-83
2022/05/22 05:22:12;;;;;;;3.65;1.90;;;;;;;18.38;42.88;99762.75;4443519;32;34778;-83
2022/05/22 05:24:41;;;;;;;7.45;1.92;;;;;;;18.89;42.07;99749.44;4443007;32;33519;-83
2022/05/22 05:27:12;;;;;;;3.33;1.75;;;;;;;19.20;41.35;99758.94;4429924;32;32231;-83
2022/05/22 05:30:12;;;;;;;3.87;1.60;;;;;;;18.40;43.04;99758.59;4434218;32;33889;-82
2022/05/22 05:32:49;;;;;;;4.95;2.45;;;;;;;18.85;42.00;99767.78;4431681;32;32108;-83
2022/05/22 05:35:27;;;;;;;4.18;1.85;;;;;;;18.93;42.04;99764.50;4446327;32;33555;-83
2022/05/22 05:38:03;;;;;;;2.70;1.50;;;;;;;18.58;42.58;99768.56;4445398;32;33700;-87
2022/05/22 05:40:33;;;;;;;3.95;1.77;;;;;;;19.04;41.79;99769.09;4444292;32;34142;-88
2022/05/22 05:43:05;;;;;;;4.35;2.25;;;;;;;18.75;42.70;99771.28;4444741;32;34788;-87
2022/05/22 05:45:35;;;;;;;5.62;2.50;;;;;;;18.97;42.11;99763.72;4457588;32;34332;-87
2022/05/22 05:48:07;;;;;;;4.28;1.70;;;;;;;19.44;41.10;99773.37;4471445;32;33672;-89
2022/05/22 05:50:38;;;;;;;4.85;2.20;;;;;;;18.78;42.27;99768.00;4431630;32;34395;-88
2022/05/22 05:53:10;;;;;;;4.70;1.65;;;;;;;19.13;42.33;99770.28;4431830;32;32959;-89
2022/05/22 05:55:49;;;;;;;25.45;16.60;;;;;;;19.05;41.95;99774.38;4446696;32;31970;-89
2022/05/22 05:58:45;;;;;;;5.25;2.10;;;;;;;19.39;41.71;99779.72;4436452;32;32204;-90
2022/05/22 06:01:17;;;;;;;5.95;2.78;;;;;;;18.77;42.44;99771.03;4432015;32;33746;-91
2022/05/22 06:03:48;;;;;;;4.20;2.12;;;;;;;19.17;42.74;99771.44;4434096;32;33405;-90
2022/05/22 06:06:23;;;;;;;5.33;2.70;;;;;;;19.39;42.16;99763.03;4445472;32;31975;-82
2022/05/22 06:08:55;;;;;;;5.62;2.03;;;;;;;19.64;42.73;99770.75;4459284;32;34725;-82
2022/05/22 06:11:26;;;;;;;4.70;1.90;;;;;;;19.61;41.59;99758.22;4431700;32;33926;-83
2022/05/22 06:13:59;;;;;;;4.35;1.83;;;;;;;19.86;41.96;99763.13;4444617;32;34279;-83
2022/05/22 06:16:32;;;;;;;3.78;1.67;;;;;;;19.90;42.12;99757.87;4431579;32;31851;-84
2022/05/22 06:19:03;;;;;;;5.28;1.80;;;;;;;20.07;41.88;99752.97;4445029;32;33877;-83
2022/05/22 06:21:31;;;;;;;6.32;1.98;;;;;;;20.14;41.56;99758.31;4444242;32;35312;-84
2022/05/22 06:24:04;;;;;;;4.43;1.90;;;;;;;19.85;40.60;99768.97;4431717;32;32908;-84
2022/05/22 06:26:32;;;;;;;5.55;1.95;;;;;;;20.03;40.67;99771.34;4431460;32;33871;-83
2022/05/22 06:29:05;;;;;;;5.03;1.98;;;;;;;20.12;40.05;99772.50;4444776;32;34518;-84
2022/05/22 06:31:33;;;;;;;4.00;2.10;;;;;;;20.17;40.21;99769.72;4444255;32;35385;-83
2022/05/22 06:34:12;;;;;;;10.73;5.80;;;;;;;20.01;40.76;99768.81;4432122;32;33215;-84
2022/05/22 06:36:44;;;;;;;5.72;2.60;;;;;;;20.25;40.05;99757.22;4445313;32;34531;-83
2022/05/22 06:42:04;;;;;;;5.95;2.80;;;;;;;19.98;41.05;99755.41;4445459;32;33515;-80
2022/05/22 06:44:32;;;;;;;11.05;6.47;;;;;;;20.17;40.22;99760.50;4456921;32;34658;-79
2022/05/22 06:47:04;;;;;;;16.30;9.35;;;;;;;20.60;38.89;99762.16;4431597;32;32707;-80
2022/05/22 06:49:42;;;;;;;5.07;2.37;;;;;;;20.35;39.50;99758.13;4444008;32;32246;-81
2022/05/22 06:52:13;;;;;;;3.92;2.08;;;;;;;20.60;38.75;99759.38;4444788;32;34654;-80
2022/05/22 06:54:44;;;;;;;4.95;1.80;;;;;;;20.60;38.71;99762.16;4431439;32;32594;-80
2022/05/22 06:57:18;;;;;;;3.72;1.90;;;;;;;20.67;38.98;99754.38;4442887;32;33722;-80
2022/05/22 06:59:48;;;;;;;4.37;2.03;;;;;;;20.86;38.57;99757.47;4427838;32;33887;-80
2022/05/22 07:02:27;;;;;;;3.30;1.58;;;;;;;20.95;38.68;99745.50;4416314;32;32943;-80
2022/05/22 07:04:57;;;;;;;5.18;1.62;;;;;;;20.49;38.61;99749.28;4426955;32;34824;-80
2022/05/22 07:07:29;;;;;;;3.80;1.65;;;;;;;20.30;38.65;99746.94;4441166;32;33664;-80
2022/05/22 07:09:57;;;;;;;3.05;1.58;;;;;;;20.24;38.40;99749.97;4428356;32;33896;-80
2022/05/22 07:12:31;;;;;;;5.15;2.30;;;;;;;20.70;37.84;99734.31;4439011;32;34336;-81
2022/05/22 07:15:04;;;;;;;6.03;2.15;;;;;;;20.97;38.19;99742.44;4428332;32;32625;-80
2022/05/22 07:17:55;;;;;;;6.35;2.55;;;;;;;20.78;37.48;99738.53;4419540;32;31996;-86
2022/05/22 07:20:26;;;;;;;4.20;1.75;;;;;;;21.23;37.38;99732.19;4441057;32;34663;-84
2022/05/22 07:23:00;;;;;;;3.47;1.50;;;;;;;20.92;37.30;99726.53;4421936;32;33846;-85
2022/05/22 07:25:35;;;;;;;7.65;1.52;;;;;;;20.84;37.35;99729.03;4438667;32;33922;-86
2022/05/22 07:28:06;;;;;;;4.35;1.83;;;;;;;21.26;37.32;99731.63;4428568;32;33326;-85
2022/05/22 07:30:37;;;;;;;4.80;1.67;;;;;;;21.30;35.93;99728.00;4413859;32;32254;-86
2022/05/22 07:33:05;;;;;;;5.60;2.10;;;;;;;21.12;37.28;99724.88;4428562;32;35263;-85
2022/05/22 07:35:36;;;;;;;7.43;1.80;;;;;;;21.16;37.02;99724.06;4427728;32;34052;-86
2022/05/22 07:38:04;;;;;;;5.22;1.83;;;;;;;21.74;36.29;99716.25;4412006;32;33247;-86
2022/05/22 07:40:35;;;;;;;4.30;2.10;;;;;;;21.97;35.69;99720.41;4408363;32;32335;-85
2022/05/22 07:43:08;;;;;;;;;;;;;;;21.58;36.97;99715.41;4421900;32;34404;-85
2022/05/22 07:45:37;;;;;;;6.10;2.37;;;;;;;21.82;35.39;99718.47;4431211;32;34819;-87
2022/05/22 07:48:07;;;;;;;4.53;1.67;;;;;;;22.08;35.32;99713.69;4418294;32;33391;-85
2022/05/22 07:50:40;;;;;;;4.90;1.60;;;;;;;21.78;34.34;99706.19;4418706;32;33330;-84
2022/05/22 07:53:13;;;;;;;5.03;1.62;;;;;;;21.85;35.14;99712.31;4420003;32;33051;-85
2022/05/22 07:55:46;;;;;;;3.22;1.33;;;;;;;22.01;33.91;99716.78;4418887;32;34206;-84
2022/05/22 07:58:20;;;;;;;3.92;1.40;;;;;;;21.59;33.34;99700.34;4406247;32;31825;-84
2022/05/22 08:00:53;;;;;;;3.40;1.60;;;;;;;22.40;33.79;99710.47;4404748;32;32630;-85
2022/05/22 08:03:24;;;;;;;2.12;1.15;;;;;;;22.29;34.52;99708.84;4429678;32;35257;-85
2022/05/22 08:05:55;;;;;;;10.73;7.12;;;;;;;22.76;34.07;99711.13;4408267;32;33591;-86
2022/05/22 08:08:24;;;;;;;3.75;1.17;;;;;;;22.76;33.52;99710.28;4424717;32;33149;-85
2022/05/22 08:10:53;;;;;;;19.35;13.25;;;;;;;22.62;32.54;99699.75;4415667;32;33507;-86
2022/05/22 08:13:24;;;;;;;4.12;1.20;;;;;;;22.82;32.72;99706.34;4422924;32;33966;-86
2022/05/22 08:15:53;;;;;;;3.35;1.37;;;;;;;22.80;32.44;99689.84;4418132;32;34215;-84
2022/05/22 08:18:25;;;;;;;3.62;1.37;;;;;;;22.84;32.07;99685.34;4432434;32;33540;-85
2022/05/22 08:20:53;;;;;;;7.85;1.52;;;;;;;23.14;31.56;99691.88;4422339;32;33044;-86
2022/05/22 08:23:27;;;;;;;3.95;1.40;;;;;;;22.84;30.95;99687.31;4419257;32;32938;-84
2022/05/22 08:25:58;;;;;;;6.20;1.67;;;;;;;23.36;31.73;99681.06;4436764;32;33943;-84
2022/05/22 08:28:29;;;;;;;4.05;1.70;;;;;;;23.45;30.88;99682.06;4437600;32;33838;-83
2022/05/22 08:30:58;;;;;;;5.62;1.45;;;;;;;23.54;31.12;99679.50;4437560;32;33957;-87
2022/05/22 08:33:27;;;;;;;6.45;1.40;;;;;;;23.40;30.29;99684.09;4442510;32;34013;-85
2022/05/22 08:35:56;;;;;;;6.90;2.35;;;;;;;23.46;29.52;99689.34;4436555;32;33865;-84
2022/05/22 08:38:29;;;;;;;3.42;1.20;;;;;;;23.55;29.28;99684.81;4419084;32;31643;-83
2022/05/22 08:40:58;;;;;;;6.80;2.00;;;;;;;23.34;29.10;99677.72;4448849;32;33737;-84
2022/05/22 08:43:38;;;;;;;6.43;2.58;;;;;;;23.22;30.24;99682.84;4429941;32;34539;-83
2022/05/22 08:46:25;;;;;;;5.10;1.50;;;;;;;22.86;30.83;99682.25;4438496;32;32505;-83
2022/05/22 08:49:25;;;;;;;4.85;1.35;;;;;;;23.20;31.00;99673.91;4440649;32;34271;-83
2022/05/22 08:52:13;;;;;;;7.10;1.70;;;;;;;23.19;31.33;99675.03;4431860;32;33696;-84
2022/05/22 08:54:50;;;;;;;6.03;1.55;;;;;;;23.54;31.54;99671.94;4438060;32;34335;-83
2022/05/22 09:00:33;;;;;;;5.82;1.40;;;;;;;24.07;30.56;99662.66;4439075;32;32840;-86
2022/05/22 09:03:08;;;;;;;3.40;1.23;;;;;;;23.75;30.55;99669.75;4426855;32;33142;-85
2022/05/22 09:05:41;;;;;;;9.20;2.22;;;;;;;23.78;28.95;99655.16;4452917;32;34046;-84
2022/05/22 09:08:32;;;;;;;3.83;1.30;;;;;;;24.07;29.80;99671.91;4442293;32;34874;-85
2022/05/22 09:11:08;;;;;;;5.50;1.37;;;;;;;24.23;28.34;99650.97;4431931;32;31993;-86
2022/05/22 09:13:42;;;;;;;4.68;1.55;;;;;;;24.50;28.21;99650.34;4429638;32;32294;-85
2022/05/22 09:16:17;;;;;;;4.53;1.65;;;;;;;24.82;27.50;99645.94;4436354;32;122107;-85
2022/05/22 09:19:06;;;;;;;1.67;1.05;;;;;;;24.33;27.23;99640.78;4426959;32;33495;-84
2022/05/22 09:22:12;;;;;;;4.53;1.20;;;;;;;24.49;27.38;99639.44;4451085;32;34121;-85
2022/05/22 09:25:04;;;;;;;4.72;1.37;;;;;;;24.59;27.64;99637.31;4440380;32;32325;-87
2022/05/22 09:27:44;;;;;;;4.45;1.42;;;;;;;25.14;26.65;99629.19;4446124;32;34817;-87
2022/05/22 09:30:18;;;;;;;3.15;1.27;;;;;;;24.96;26.51;99644.06;4429465;32;33873;-87
2022/05/22 09:33:08;;;;;;;5.72;1.10;;;;;;;24.79;26.56;99626.91;4433483;32;33354;-87
2022/05/22 09:36:07;;;;;;;3.45;1.40;;;;;;;25.38;27.25;99622.56;4433927;32;33895;-88
2022/05/22 09:38:51;;;;;;;7.43;1.40;;;;;;;25.57;26.56;99624.16;4444038;32;33857;-87
2022/05/22 09:41:58;;;;;;;4.18;1.35;;;;;;;25.97;26.46;99618.09;4443935;32;34062;-85
2022/05/22 09:44:36;;;;;;;6.18;1.48;;;;;;;26.07;25.50;99626.31;4404753;32;31834;-86
2022/05/22 09:47:22;;;;;;;6.12;1.20;;;;;;;25.69;27.22;99617.25;4444196;32;33611;-85
2022/05/22 09:50:23;;;;;;;3.97;1.33;;;;;;;25.75;25.59;99616.84;4443577;32;34478;-86
2022/05/22 09:52:58;;;;;;;3.58;1.10;;;;;;;25.58;25.51;99619.37;4418300;32;32747;-86
2022/05/22 09:55:39;;;;;;;4.87;1.37;;;;;;;25.28;25.14;99609.56;4429163;32;32182;-85
2022/05/22 09:58:32;;;;;;;6.20;1.30;;;;;;;25.69;24.61;99626.50;4430353;32;32377;-89
2022/05/22 10:01:12;;;;;;;2.78;1.10;;;;;;;26.17;25.37;99614.84;4442560;32;35597;-86
2022/05/22 10:03:49;;;;;;;4.87;1.50;;;;;;;26.57;25.13;99604.69;4447422;32;33737;-84
2022/05/22 10:06:20;;;;;;;5.90;1.87;;;;;;;26.34;24.66;99606.63;4422704;32;34214;-82
2022/05/22 10:09:06;;;;;;;6.57;1.35;;;;;;;26.49;24.21;99606.28;4423563;32;33839;-83
2022/05/22 10:11:48;;;;;;;4.37;1.10;;;;;;;26.32;23.60;99613.72;4436496;32;32851;-84
2022/05/22 10:14:55;;;;;;;3.40;1.37;;;;;;;26.01;24.68;99596.63;4442797;32;33760;-91
2022/05/22 10:17:26;;;;;;;3.40;1.30;;;;;;;26.06;24.87;99604.94;4431975;32;31809;-82
2022/05/22 10:20:00;;;;;;;3.85;1.08;;;;;;;26.50;25.03;99593.88;4439445;32;32134;-83
2022/05/22 10:23:06;;;;;;;4.47;1.20;;;;;;;26.51;23.78;99587.09;4451060;32;34482;-82
2022/05/22 10:26:11;;;;;;;5.80;1.10;;;;;;;26.89;24.22;99583.91;4440879;32;32637;-84
2022/05/22 10:28:54;;;;;;;6.68;1.50;;;;;;;27.09;24.19;99580.63;4444844;32;31827;-83
2022/05/22 10:31:33;;;;;;;5.45;1.25;;;;;;;27.04;24.33;99563.84;4432236;32;33763;-82
2022/05/22 10:34:38;;;;;;;3.72;1.10;;;;;;;27.36;22.84;99573.13;4453290;32;34615;-83
2022/05/22 10:37:25;;;;;;;3.62;1.17;;;;;;;27.22;23.18;99576.06;4431612;32;34095;-82
2022/05/22 10:39:53;;;;;;;;;;;;;;;27.28;23.59;99565.50;4416041;32;32300;-82
2022/05/22 10:45:22;;;;;;;4.22;1.12;;;;;;;27.30;22.60;99560.38;4453537;32;35963;-82
2022/05/22 10:47:54;;;;;;;7.72;1.45;;;;;;;27.26;23.08;99557.38;4441052;32;32562;-83
2022/05/22 10:50:28;;;;;;;4.65;1.30;;;;;;;27.27;23.03;99567.47;4441232;32;34181;-82
2022/05/22 10:52:56;;;;;;;4.57;1.20;;;;;;;27.43;22.80;99574.34;4440923;32;32336;-82
2022/05/22 10:55:31;;;;;;;5.10;1.50;;;;;;;27.29;22.96;99576.44;4441216;32;35302;-83
2022/05/22 10:58:02;;;;;;;3.28;1.37;;;;;;;27.62;23.06;99571.31;4441058;32;32458;-83
2022/05/22 11:00:33;;;;;;;3.83;1.20;;;;;;;27.75;22.61;99564.75;4440846;32;33507;-83
2022/05/22 11:03:12;;;;;;;9.18;2.30;;;;;;;27.98;23.19;99559.00;4440806;32;33153;-83
2022/05/22 11:05:49;;;;;;;1.77;1.00;;;;;;;27.83;21.88;99582.87;4428288;32;33249;-83
2022/05/22 11:08:28;;;;;;;4.85;1.37;;;;;;;27.29;22.39;99575.63;4441352;32;32435;-82
2022/05/22 11:11:33;;;;;;;6.47;1.50;;;;;;;27.38;22.32;99577.28;4440811;32;31994;-83
2022/05/22 11:14:10;;;;;;;5.90;1.40;;;;;;;27.46;22.66;99575.69;4464113;32;34427;-83
2022/05/22 11:16:39;;;;;;;3.80;1.40;;;;;;;26.98;23.83;99576.41;4428092;32;34437;-82
2022/05/22 11:19:26;;;;;;;7.90;4.05;;;;;;;27.25;22.90;99577.41;4428544;32;33892;-83
2022/05/22 11:22:06;;;;;;;3.35;1.30;;;;;;;27.49;22.66;99583.50;4412419;32;33543;-82
2022/05/22 11:25:11;;;;;;;8.82;4.68;;;;;;;27.05;22.41;99568.34;4425012;32;32317;-83
2022/05/22 11:28:05;;;;;;;4.65;1.05;;;;;;;27.46;22.33;99547.50;4425910;32;35393;-82
2022/05/22 11:30:36;;;;;;;6.10;1.40;;;;;;;27.25;22.90;99560.50;4411158;32;33483;-83
2022/05/22 11:33:20;;;;;;;4.87;1.00;;;;;;;27.89;23.21;99536.44;4412358;32;31849;-82
2022/05/22 11:35:51;;;;;;;3.75;1.25;;;;;;;27.69;23.28;99551.13;4412165;32;32843;-82
2022/05/22 11:38:42;;;;;;;4.30;1.33;;;;;;;27.42;22.50;99557.75;4425176;32;34337;-82
2022/05/22 11:41:45;;;;;;;2.47;1.20;;;;;;;28.00;21.94;99548.22;4412895;32;34700;-83
2022/05/22 11:44:35;;;;;;;6.72;1.35;;;;;;;28.41;22.71;99522.41;4412683;32;33488;-83
2022/05/22 11:47:31;;;;;;;5.43;1.37;;;;;;;27.86;21.89;99537.91;4427201;32;33654;-83
2022/05/22 11:50:11;;;;;;;;;;;;;;;27.52;22.21;99538.56;4425981;32;35079;-83
2022/05/22 11:52:58;;;;;;;5.50;1.20;;;;;;;27.58;22.57;99542.09;4433606;32;34554;-83
2022/05/22 11:56:00;;;;;;;5.03;1.30;;;;;;;27.85;22.35;99533.44;4413171;32;33655;-83
2022/05/22 11:58:47;;;;;;;3.95;1.08;;;;;;;27.68;22.18;99541.00;4390420;32;33272;-83
2022/05/22 12:01:20;;;;;;;2.70;1.05;;;;;;;27.88;22.08;99523.47;4438173;32;35235;-83
2022/05/22 12:04:12;;;;;;;5.12;1.30;;;;;;;27.53;22.42;99522.50;4420629;32;34561;-83
2022/05/22 12:06:42;;;;;;;3.62;1.40;;;;;;;27.81;22.37;99511.84;4420725;32;34307;-83
2022/05/22 12:09:41;;;;;;;5.65;1.73;;;;;;;28.10;22.03;99494.28;4432265;32;33567;-83
2022/05/22 12:12:43;;;;;;;4.43;1.17;;;;;;;27.99;21.74;99488.13;4411839;32;33655;-83
2022/05/22 12:15:23;;;;;;;4.15;1.33;;;;;;;28.15;21.54;99500.59;4411631;32;33162;-83
2022/05/22 12:18:24;;;;;;;4.12;1.30;;;;;;;27.82;21.90;99502.22;4433010;32;33559;-82
2022/05/22 12:21:38;;;;;;;2.75;1.00;;;;;;;28.16;21.55;99501.44;4435026;32;33748;-83
2022/05/22 12:24:53;;;;;;;5.07;1.35;;;;;;;27.12;22.22;99503.91;4418378;32;33786;-83
2022/05/22 12:27:32;;;;;;;3.60;1.10;;;;;;;27.11;23.18;99499.44;4398014;32;33741;-83
2022/05/22 12:30:06;;;;;;;2.90;0.82;;;;;;;27.48;23.16;99481.19;4415037;32;33869;-83